Aeroporto :
LOGIN :

Iscrizione | Disclaimer

   EN    FR    IT 

 










Sommario :    VFR   VFR Marginale   IFR   IFR Intensivo   IFR Molto Intensivo
Visibilità : 
Base nubi : 
>= 8 km
>= 3000ft
5 / 8 km
1000 / 3000 ft
1500m / 5 km
500 / 1000 ft
800 / 1500m
200 / 500 ft
< 800m
< 200 ft
Simboli :   Temporali  Nebbia  Neve Forte  Precipitazioni Forti  Vento > 20 kt
SIGMETs :   Varie  Temporali  Ghiacco  Turbolenza  Onda orograficha  Ceneri Vulcaniche






- Altitudine del aeroporto : 24 ft
- Codice IATA : SGD


EKSB - Sonderborg

ULTIMO METAR :
  • 172050Z 21007KT 180V240 4000 -DZ BR BKN005 08/07 Q1010

METARs OBSOLETI :
  • 172020Z 21007KT 180V250 5000 -RA BKN006 08/07 Q1010
  • 171950Z 21006KT 180V240 6000 -RA BKN006 08/07 Q1010
  • 171920Z 20006KT 170V240 7000 -RA BKN007 08/07 Q1010
  • 171850Z 19005KT 160V220 9999 -RA BKN008 08/07 Q1010
  • 171820Z 20007KT 170V240 9999 -RA BKN013 08/06 Q1010
  • 171750Z 20007KT 170V230 9999 SCT013 BKN017 09/06 Q1010

TAF TAF EKSB
Valido dal 17 a 18 ore il 17 a 23 ore UTC


171754Z 1718/1723 17012KT 9999 SCT025
BECMG 1718/1721 23010KT 4000 RADZ BR BKN008
TEMPO 1721/1723 6000 NSW BKN015



MetMap, La meteo Aeronautica in un colpo d'occhio ! - Copyright ORBIFLY Dicembre 2007 - Disclaimer

ORBIFLY MET'MAP TEAM :

Programmazione e sviluppo : Alexandra Zaïnal
Concezione : Baudouin d'Aumeries
Aiuto per la programmazione : Marc-Olivier Méhu
Supporto tecnico e logistico : Manuel Goepfert
Aiuto per la traduzione : Arnaldo La Scala

Contatto : metmap@orbifly.com




FONTI E CREDITI :

   NOAA